createdAt,value
2018-06-17T00:06:55.254Z,99.99
2018-06-17T00:16:53.335Z,99.99
2018-06-17T00:26:53.235Z,99.99
2018-06-17T00:36:53.201Z,99.99
2018-06-17T00:46:53.265Z,99.99
2018-06-17T00:56:53.232Z,99.99
2018-06-17T01:06:53.194Z,99.99
2018-06-17T01:16:53.216Z,99.99
2018-06-17T01:26:53.215Z,99.99
2018-06-17T01:36:53.240Z,99.99
2018-06-17T01:46:53.242Z,99.99
2018-06-17T01:56:53.315Z,99.99
2018-06-17T02:06:53.294Z,99.99
2018-06-17T02:16:53.212Z,99.99
2018-06-17T02:26:53.299Z,99.99
2018-06-17T02:36:53.271Z,99.99
2018-06-17T02:46:53.223Z,99.99
2018-06-17T02:56:53.281Z,99.99
2018-06-17T03:06:53.227Z,99.99
2018-06-17T03:16:53.160Z,99.99
2018-06-17T03:26:53.281Z,99.99
2018-06-17T03:36:53.210Z,99.99
2018-06-17T03:46:53.269Z,99.99
2018-06-17T03:56:53.227Z,99.99
2018-06-17T04:06:53.221Z,99.99
2018-06-17T04:16:53.267Z,99.99
2018-06-17T04:26:53.207Z,99.99
2018-06-17T04:36:53.262Z,99.99
2018-06-17T04:46:58.650Z,99.99
2018-06-17T04:56:53.223Z,99.99
2018-06-17T05:06:53.264Z,99.99
2018-06-17T05:16:53.230Z,99.99
2018-06-17T05:26:53.293Z,99.99
2018-06-17T05:36:53.248Z,99.99
2018-06-17T05:46:53.209Z,99.99
2018-06-17T05:56:53.289Z,83.98
2018-06-17T06:06:53.239Z,72.38
2018-06-17T06:16:53.280Z,70.62
2018-06-17T06:26:53.297Z,68.85
2018-06-17T06:36:53.257Z,67.05
2018-06-17T06:46:53.307Z,66.72
2018-06-17T06:56:53.293Z,64.34
2018-06-17T07:06:53.341Z,62.11
2018-06-17T07:16:53.354Z,61.33
2018-06-17T07:26:53.266Z,64.07
2018-06-17T07:36:53.337Z,63.98
2018-06-17T07:46:53.252Z,62.53
2018-06-17T07:56:53.329Z,61.3
2018-06-17T08:06:53.285Z,58.04
2018-06-17T08:16:53.376Z,58.31
2018-06-17T08:26:53.354Z,56.21
2018-06-17T08:36:53.341Z,59.05
2018-06-17T08:46:53.474Z,65.08
2018-06-17T08:56:54.369Z,70.46
2018-06-17T09:06:53.262Z,70.97
2018-06-17T09:16:53.357Z,72.9
2018-06-17T09:26:53.280Z,74.05
2018-06-17T09:36:53.347Z,75.14
2018-06-17T09:46:53.347Z,77.38
2018-06-17T09:56:53.284Z,76.13
2018-06-17T10:06:53.341Z,74.4
2018-06-17T10:16:53.336Z,76.84
2018-06-17T10:26:53.358Z,75.61
2018-06-17T10:36:53.341Z,77.9
2018-06-17T10:46:53.277Z,75.01
2018-06-17T10:56:53.352Z,74.01
2018-06-17T11:06:53.355Z,73.85
2018-06-17T11:16:53.416Z,75.49
2018-06-17T11:26:53.321Z,75.55
2018-06-17T11:36:53.294Z,75.65
2018-06-17T11:46:53.380Z,72.66
2018-06-17T11:56:53.374Z,71.02
2018-06-17T12:06:53.400Z,68.9
2018-06-17T12:16:53.333Z,69.38
2018-06-17T12:26:53.428Z,66.82
2018-06-17T12:36:53.364Z,64.92
2018-06-17T12:46:53.320Z,64.5
2018-06-17T12:56:53.431Z,64.72
2018-06-17T13:06:53.836Z,65.01
2018-06-17T13:16:53.342Z,66.88
2018-06-17T13:26:53.396Z,68.52
2018-06-17T13:36:53.320Z,68.04
2018-06-17T13:46:53.489Z,66.72
2018-06-17T13:56:55.018Z,65.75
2018-06-17T14:07:04.649Z,63.37
2018-06-17T14:16:53.368Z,63.21
2018-06-17T14:26:53.395Z,65.34
2018-06-17T14:36:53.368Z,64.28
2018-06-17T14:46:53.413Z,64.72
2018-06-17T14:56:53.363Z,66.27
2018-06-17T15:07:00.123Z,67.4
2018-06-17T15:16:53.432Z,66.97
2018-06-17T15:26:53.327Z,67.3
2018-06-17T15:36:55.666Z,67.43
2018-06-17T15:46:53.353Z,66.66
2018-06-17T15:56:53.400Z,64.5
2018-06-17T16:06:53.366Z,66.2
2018-06-17T16:17:01.681Z,69.48
2018-06-17T16:26:54.595Z,70.73
2018-06-17T16:36:57.164Z,69.83
2018-06-17T16:46:53.436Z,71.18
2018-06-17T16:56:56.611Z,72.63
2018-06-17T17:07:16.757Z,73.36
2018-06-17T17:16:53.413Z,71.47
2018-06-17T17:27:14.427Z,73.49
2018-06-17T17:36:53.425Z,74.96
2018-06-17T17:46:53.421Z,73.36
2018-06-17T17:56:53.388Z,75.19
2018-06-17T18:06:53.419Z,75.67
2018-06-17T18:16:53.424Z,77.26
2018-06-17T18:26:53.452Z,77.13
2018-06-17T18:36:53.433Z,77.81
2018-06-17T18:46:53.399Z,80.4
2018-06-17T18:56:53.432Z,80.65
2018-06-17T19:06:53.399Z,87.34
2018-06-17T19:16:53.562Z,95.07
2018-06-17T19:26:53.418Z,99.99
2018-06-17T19:36:53.409Z,99.99
2018-06-17T19:46:53.435Z,99.99
2018-06-17T19:56:53.381Z,99.99
2018-06-17T20:06:53.452Z,99.99
2018-06-17T20:16:53.390Z,99.99
2018-06-17T20:26:55.083Z,99.99
2018-06-17T20:36:53.409Z,99.99
2018-06-17T20:46:53.357Z,99.99
2018-06-17T20:56:53.453Z,99.99
2018-06-17T21:07:05.825Z,99.99
2018-06-17T21:16:53.423Z,99.99
2018-06-17T21:26:54.456Z,99.99
2018-06-17T21:36:53.419Z,99.99
2018-06-17T21:46:53.410Z,99.99
2018-06-17T21:56:53.338Z,99.99
2018-06-17T22:06:53.470Z,99.99
2018-06-17T22:16:53.405Z,99.99
2018-06-17T22:26:53.526Z,99.99
2018-06-17T22:36:53.431Z,99.99
2018-06-17T22:46:53.392Z,99.99
2018-06-17T22:56:53.459Z,99.99
2018-06-17T23:06:53.409Z,99.99
2018-06-17T23:16:53.386Z,99.99
2018-06-17T23:26:53.410Z,99.99
2018-06-17T23:36:53.389Z,99.99
2018-06-17T23:46:53.445Z,99.99
2018-06-17T23:56:53.407Z,99.99
